sensor_id;sensor_type;location;lat;lon;timestamp;pressure;altitude;pressure_sealevel;temperature;humidity
44934;BME280;30667;43.614;1.442;2023-07-28T00:01:58;99831.59;;;22.15;100.00
44934;BME280;30667;43.614;1.442;2023-07-28T00:04:23;99836.00;;;22.20;100.00
44934;BME280;30667;43.614;1.442;2023-07-28T00:06:48;99829.16;;;22.29;100.00
44934;BME280;30667;43.614;1.442;2023-07-28T00:09:14;99830.50;;;22.20;100.00
44934;BME280;30667;43.614;1.442;2023-07-28T00:11:39;99822.06;;;22.12;100.00
44934;BME280;30667;43.614;1.442;2023-07-28T00:14:04;99830.03;;;22.18;100.00
44934;BME280;30667;43.614;1.442;2023-07-28T00:16:30;99835.72;;;22.05;100.00
44934;BME280;30667;43.614;1.442;2023-07-28T00:18:55;99836.75;;;22.17;100.00
44934;BME280;30667;43.614;1.442;2023-07-28T00:21:21;99839.56;;;22.20;100.00
44934;BME280;30667;43.614;1.442;2023-07-28T00:23:46;99836.88;;;22.24;100.00
44934;BME280;30667;43.614;1.442;2023-07-28T00:26:11;99837.59;;;22.21;100.00
44934;BME280;30667;43.614;1.442;2023-07-28T00:28:37;99845.13;;;22.04;100.00
44934;BME280;30667;43.614;1.442;2023-07-28T00:31:02;99846.13;;;21.96;100.00
44934;BME280;30667;43.614;1.442;2023-07-28T00:33:27;99847.44;;;22.02;100.00
44934;BME280;30667;43.614;1.442;2023-07-28T00:35:53;99850.31;;;21.90;100.00
44934;BME280;30667;43.614;1.442;2023-07-28T00:38:18;99853.41;;;21.88;100.00
44934;BME280;30667;43.614;1.442;2023-07-28T00:40:44;99855.19;;;21.97;100.00
44934;BME280;30667;43.614;1.442;2023-07-28T00:43:09;99866.00;;;22.05;100.00
44934;BME280;30667;43.614;1.442;2023-07-28T00:45:35;99854.00;;;22.13;100.00
44934;BME280;30667;43.614;1.442;2023-07-28T00:48:01;99858.25;;;22.11;100.00
44934;BME280;30667;43.614;1.442;2023-07-28T00:50:27;99857.53;;;22.14;100.00
44934;BME280;30667;43.614;1.442;2023-07-28T00:52:54;99863.03;;;22.14;100.00
44934;BME280;30667;43.614;1.442;2023-07-28T00:55:20;99853.69;;;22.19;100.00
44934;BME280;30667;43.614;1.442;2023-07-28T00:57:47;99837.97;;;22.19;100.00
44934;BME280;30667;43.614;1.442;2023-07-28T01:00:12;99836.44;;;22.22;100.00
44934;BME280;30667;43.614;1.442;2023-07-28T01:02:38;99843.00;;;22.53;100.00
44934;BME280;30667;43.614;1.442;2023-07-28T01:05:04;99839.53;;;22.36;100.00
44934;BME280;30667;43.614;1.442;2023-07-28T01:10:14;99847.88;;;22.40;100.00
44934;BME280;30667;43.614;1.442;2023-07-28T01:12:42;99850.84;;;22.31;100.00
44934;BME280;30667;43.614;1.442;2023-07-28T01:15:07;99842.94;;;22.29;100.00
44934;BME280;30667;43.614;1.442;2023-07-28T01:17:33;99835.66;;;22.21;100.00
44934;BME280;30667;43.614;1.442;2023-07-28T01:19:58;99834.78;;;22.17;100.00
44934;BME280;30667;43.614;1.442;2023-07-28T01:27:42;99852.88;;;21.99;100.00
44934;BME280;30667;43.614;1.442;2023-07-28T01:30:09;99860.50;;;22.05;100.00
44934;BME280;30667;43.614;1.442;2023-07-28T01:32:35;99871.63;;;21.93;100.00
44934;BME280;30667;43.614;1.442;2023-07-28T01:35:05;99874.13;;;21.82;100.00
44934;BME280;30667;43.614;1.442;2023-07-28T01:37:30;99860.06;;;21.87;100.00
44934;BME280;30667;43.614;1.442;2023-07-28T01:39:56;99857.94;;;21.81;100.00
44934;BME280;30667;43.614;1.442;2023-07-28T01:42:23;99851.94;;;21.75;100.00
44934;BME280;30667;43.614;1.442;2023-07-28T01:44:48;99849.06;;;21.87;100.00
44934;BME280;30667;43.614;1.442;2023-07-28T01:47:14;99846.31;;;21.87;100.00
44934;BME280;30667;43.614;1.442;2023-07-28T01:49:39;99839.38;;;21.77;100.00
44934;BME280;30667;43.614;1.442;2023-07-28T01:52:05;99837.59;;;21.85;100.00
44934;BME280;30667;43.614;1.442;2023-07-28T01:54:30;99845.09;;;21.69;100.00
44934;BME280;30667;43.614;1.442;2023-07-28T01:56:55;99837.63;;;21.69;100.00
44934;BME280;30667;43.614;1.442;2023-07-28T01:59:21;99831.84;;;21.74;100.00
44934;BME280;30667;43.614;1.442;2023-07-28T02:01:47;99831.41;;;21.72;100.00
44934;BME280;30667;43.614;1.442;2023-07-28T02:04:12;99832.84;;;21.66;100.00
44934;BME280;30667;43.614;1.442;2023-07-28T02:06:37;99830.97;;;21.70;100.00
44934;BME280;30667;43.614;1.442;2023-07-28T02:09:03;99833.38;;;21.72;100.00
44934;BME280;30667;43.614;1.442;2023-07-28T02:11:28;99834.38;;;21.64;100.00
44934;BME280;30667;43.614;1.442;2023-07-28T02:13:54;99834.25;;;21.60;100.00
44934;BME280;30667;43.614;1.442;2023-07-28T02:16:19;99835.16;;;21.64;100.00
44934;BME280;30667;43.614;1.442;2023-07-28T02:18:44;99839.31;;;21.58;100.00
44934;BME280;30667;43.614;1.442;2023-07-28T02:21:10;99840.81;;;21.55;100.00
44934;BME280;30667;43.614;1.442;2023-07-28T02:23:35;99837.09;;;21.48;100.00
44934;BME280;30667;43.614;1.442;2023-07-28T02:26:01;99831.41;;;21.40;100.00
44934;BME280;30667;43.614;1.442;2023-07-28T02:28:26;99829.44;;;21.25;100.00
44934;BME280;30667;43.614;1.442;2023-07-28T02:30:52;99823.50;;;21.23;100.00
44934;BME280;30667;43.614;1.442;2023-07-28T02:33:17;99835.22;;;21.20;100.00
44934;BME280;30667;43.614;1.442;2023-07-28T02:35:43;99828.22;;;21.38;100.00
44934;BME280;30667;43.614;1.442;2023-07-28T02:38:08;99821.03;;;21.34;100.00
44934;BME280;30667;43.614;1.442;2023-07-28T02:40:33;99822.97;;;21.33;100.00
44934;BME280;30667;43.614;1.442;2023-07-28T02:42:59;99824.56;;;21.18;100.00
44934;BME280;30667;43.614;1.442;2023-07-28T02:45:25;99824.47;;;21.15;100.00
44934;BME280;30667;43.614;1.442;2023-07-28T02:47:50;99826.53;;;21.18;100.00
44934;BME280;30667;43.614;1.442;2023-07-28T02:50:16;99820.81;;;21.11;100.00
44934;BME280;30667;43.614;1.442;2023-07-28T02:52:41;99824.47;;;21.15;100.00
44934;BME280;30667;43.614;1.442;2023-07-28T02:55:07;99819.41;;;21.01;100.00
44934;BME280;30667;43.614;1.442;2023-07-28T02:57:33;99822.59;;;21.03;100.00
44934;BME280;30667;43.614;1.442;2023-07-28T02:59:58;99827.84;;;21.08;100.00
44934;BME280;30667;43.614;1.442;2023-07-28T03:02:24;99827.28;;;21.02;100.00
44934;BME280;30667;43.614;1.442;2023-07-28T03:04:49;99831.28;;;20.89;100.00
44934;BME280;30667;43.614;1.442;2023-07-28T03:07:15;99820.00;;;20.94;100.00
44934;BME280;30667;43.614;1.442;2023-07-28T03:09:40;99820.72;;;20.91;100.00
44934;BME280;30667;43.614;1.442;2023-07-28T03:12:06;99820.00;;;20.94;100.00
44934;BME280;30667;43.614;1.442;2023-07-28T03:14:32;99809.72;;;20.91;100.00
44934;BME280;30667;43.614;1.442;2023-07-28T03:16:57;99806.34;;;20.98;100.00
44934;BME280;30667;43.614;1.442;2023-07-28T03:19:23;99808.75;;;20.99;100.00
44934;BME280;30667;43.614;1.442;2023-07-28T03:21:48;99806.97;;;20.91;100.00
44934;BME280;30667;43.614;1.442;2023-07-28T03:24:13;99815.63;;;20.77;100.00
44934;BME280;30667;43.614;1.442;2023-07-28T03:26:39;99805.19;;;20.83;100.00
44934;BME280;30667;43.614;1.442;2023-07-28T03:29:04;99796.22;;;20.86;100.00
44934;BME280;30667;43.614;1.442;2023-07-28T03:31:30;99794.13;;;20.95;100.00
44934;BME280;30667;43.614;1.442;2023-07-28T03:33:55;99792.84;;;20.93;100.00
44934;BME280;30667;43.614;1.442;2023-07-28T03:36:21;99802.44;;;20.83;100.00
44934;BME280;30667;43.614;1.442;2023-07-28T03:38:46;99805.22;;;20.71;100.00
44934;BME280;30667;43.614;1.442;2023-07-28T03:41:12;99810.28;;;20.68;100.00
44934;BME280;30667;43.614;1.442;2023-07-28T03:43:38;99799.47;;;20.76;100.00
44934;BME280;30667;43.614;1.442;2023-07-28T03:46:03;99800.91;;;20.70;100.00
44934;BME280;30667;43.614;1.442;2023-07-28T03:48:29;99806.75;;;20.68;100.00
44934;BME280;30667;43.614;1.442;2023-07-28T03:50:54;99811.91;;;20.57;100.00
44934;BME280;30667;43.614;1.442;2023-07-28T03:53:20;99809.31;;;20.48;100.00
44934;BME280;30667;43.614;1.442;2023-07-28T03:55:45;99820.19;;;20.45;100.00
44934;BME280;30667;43.614;1.442;2023-07-28T03:58:10;99818.63;;;20.44;100.00
44934;BME280;30667;43.614;1.442;2023-07-28T04:00:36;99818.16;;;20.42;100.00
44934;BME280;30667;43.614;1.442;2023-07-28T04:03:01;99812.91;;;20.37;100.00
44934;BME280;30667;43.614;1.442;2023-07-28T04:05:26;99822.97;;;20.32;100.00
44934;BME280;30667;43.614;1.442;2023-07-28T04:07:52;99815.91;;;20.31;100.00
44934;BME280;30667;43.614;1.442;2023-07-28T04:10:17;99808.81;;;20.30;100.00
44934;BME280;30667;43.614;1.442;2023-07-28T04:12:43;99811.19;;;20.32;100.00
44934;BME280;30667;43.614;1.442;2023-07-28T04:15:08;99816.69;;;20.32;100.00
44934;BME280;30667;43.614;1.442;2023-07-28T04:17:34;99803.56;;;20.25;100.00
44934;BME280;30667;43.614;1.442;2023-07-28T04:19:59;99809.75;;;20.22;100.00
44934;BME280;30667;43.614;1.442;2023-07-28T04:22:24;99812.25;;;20.27;100.00
44934;BME280;30667;43.614;1.442;2023-07-28T04:24:50;99811.34;;;20.23;100.00
44934;BME280;30667;43.614;1.442;2023-07-28T04:27:15;99807.19;;;20.29;100.00
44934;BME280;30667;43.614;1.442;2023-07-28T04:29:41;99802.66;;;20.21;100.00
44934;BME280;30667;43.614;1.442;2023-07-28T04:32:06;99810.31;;;20.28;100.00
44934;BME280;30667;43.614;1.442;2023-07-28T04:34:35;99809.41;;;20.24;100.00
44934;BME280;30667;43.614;1.442;2023-07-28T04:37:00;99806.75;;;20.27;100.00
44934;BME280;30667;43.614;1.442;2023-07-28T04:39:26;99798.59;;;20.31;100.00
44934;BME280;30667;43.614;1.442;2023-07-28T04:41:51;99802.72;;;20.37;100.00
44934;BME280;30667;43.614;1.442;2023-07-28T04:44:18;99808.81;;;20.30;100.00
44934;BME280;30667;43.614;1.442;2023-07-28T04:46:45;99820.94;;;20.29;100.00
44934;BME280;30667;43.614;1.442;2023-07-28T04:49:13;99823.13;;;20.24;100.00
44934;BME280;30667;43.614;1.442;2023-07-28T04:51:38;99824.06;;;20.28;100.00
44934;BME280;30667;43.614;1.442;2023-07-28T04:54:04;99822.34;;;20.23;100.00
44934;BME280;30667;43.614;1.442;2023-07-28T04:56:29;99814.09;;;20.23;100.00
44934;BME280;30667;43.614;1.442;2023-07-28T04:58:54;99811.72;;;20.22;100.00
44934;BME280;30667;43.614;1.442;2023-07-28T05:01:20;99801.75;;;20.17;100.00
44934;BME280;30667;43.614;1.442;2023-07-28T05:03:45;99803.59;;;20.13;100.00
44934;BME280;30667;43.614;1.442;2023-07-28T05:06:13;99801.06;;;20.20;100.00
44934;BME280;30667;43.614;1.442;2023-07-28T05:08:38;99806.09;;;20.18;100.00
44934;BME280;30667;43.614;1.442;2023-07-28T05:11:03;99791.91;;;20.16;100.00
44934;BME280;30667;43.614;1.442;2023-07-28T05:13:29;99805.28;;;20.18;100.00
44934;BME280;30667;43.614;1.442;2023-07-28T05:15:54;99806.22;;;20.22;100.00
44934;BME280;30667;43.614;1.442;2023-07-28T05:18:19;99816.38;;;20.21;100.00
44934;BME280;30667;43.614;1.442;2023-07-28T05:20:45;99825.97;;;20.27;100.00
44934;BME280;30667;43.614;1.442;2023-07-28T05:23:10;99822.53;;;20.30;100.00
44934;BME280;30667;43.614;1.442;2023-07-28T05:25:36;99818.19;;;20.29;100.00
44934;BME280;30667;43.614;1.442;2023-07-28T05:28:01;99814.19;;;20.27;100.00
44934;BME280;30667;43.614;1.442;2023-07-28T05:30:26;99817.28;;;20.25;100.00
44934;BME280;30667;43.614;1.442;2023-07-28T05:32:54;99826.19;;;20.35;100.00
44934;BME280;30667;43.614;1.442;2023-07-28T05:35:19;99831.00;;;20.38;100.00
44934;BME280;30667;43.614;1.442;2023-07-28T05:37:46;99824.56;;;20.46;100.00
44934;BME280;30667;43.614;1.442;2023-07-28T05:40:12;99831.06;;;20.54;100.00
44934;BME280;30667;43.614;1.442;2023-07-28T05:42:37;99824.41;;;20.55;100.00
44934;BME280;30667;43.614;1.442;2023-07-28T05:45:03;99822.13;;;20.57;100.00
44934;BME280;30667;43.614;1.442;2023-07-28T05:47:28;99818.81;;;20.51;100.00
44934;BME280;30667;43.614;1.442;2023-07-28T05:49:54;99818.78;;;20.63;100.00
44934;BME280;30667;43.614;1.442;2023-07-28T05:52:20;99823.13;;;20.64;100.00
44934;BME280;30667;43.614;1.442;2023-07-28T05:54:45;99826.53;;;20.61;100.00
44934;BME280;30667;43.614;1.442;2023-07-28T05:57:10;99825.75;;;20.61;100.00
44934;BME280;30667;43.614;1.442;2023-07-28T05:59:36;99822.53;;;20.71;100.00
44934;BME280;30667;43.614;1.442;2023-07-28T06:02:02;99839.09;;;20.87;100.00
44934;BME280;30667;43.614;1.442;2023-07-28T06:04:27;99837.56;;;20.90;100.00
44934;BME280;30667;43.614;1.442;2023-07-28T06:06:52;99844.03;;;20.81;100.00
44934;BME280;30667;43.614;1.442;2023-07-28T06:09:18;99836.78;;;20.89;100.00
44934;BME280;30667;43.614;1.442;2023-07-28T06:11:44;99834.84;;;21.05;100.00
44934;BME280;30667;43.614;1.442;2023-07-28T06:14:09;99848.16;;;21.03;100.00
44934;BME280;30667;43.614;1.442;2023-07-28T06:16:34;99846.19;;;21.04;100.00
44934;BME280;30667;43.614;1.442;2023-07-28T06:19:00;99844.00;;;21.10;100.00
44934;BME280;30667;43.614;1.442;2023-07-28T06:21:25;99849.25;;;21.31;100.00
44934;BME280;30667;43.614;1.442;2023-07-28T06:23:51;99856.94;;;21.25;100.00
44934;BME280;30667;43.614;1.442;2023-07-28T06:26:16;99863.34;;;21.29;100.00
44934;BME280;30667;43.614;1.442;2023-07-28T06:28:42;99865.75;;;21.31;100.00
44934;BME280;30667;43.614;1.442;2023-07-28T06:31:07;99861.44;;;21.62;100.00
44934;BME280;30667;43.614;1.442;2023-07-28T06:33:34;99860.66;;;21.61;100.00
44934;BME280;30667;43.614;1.442;2023-07-28T06:35:59;99857.88;;;21.61;100.00
44934;BME280;30667;43.614;1.442;2023-07-28T06:38:24;99864.72;;;21.67;100.00
44934;BME280;30667;43.614;1.442;2023-07-28T06:40:50;99864.72;;;21.83;100.00
44934;BME280;30667;43.614;1.442;2023-07-28T06:43:15;99864.34;;;21.85;100.00
44934;BME280;30667;43.614;1.442;2023-07-28T06:45:41;99870.50;;;21.78;100.00
44934;BME280;30667;43.614;1.442;2023-07-28T06:48:06;99858.88;;;21.69;100.00
44934;BME280;30667;43.614;1.442;2023-07-28T06:50:31;99868.91;;;21.61;100.00
44934;BME280;30667;43.614;1.442;2023-07-28T06:52:57;99876.25;;;21.57;100.00
44934;BME280;30667;43.614;1.442;2023-07-28T06:55:23;99874.50;;;21.65;100.00
44934;BME280;30667;43.614;1.442;2023-07-28T06:57:48;99865.44;;;21.64;100.00
44934;BME280;30667;43.614;1.442;2023-07-28T07:00:15;99869.25;;;21.59;100.00
44934;BME280;30667;43.614;1.442;2023-07-28T07:02:40;99864.63;;;21.80;100.00
44934;BME280;30667;43.614;1.442;2023-07-28T07:05:06;99866.06;;;21.73;100.00
44934;BME280;30667;43.614;1.442;2023-07-28T07:07:32;99866.22;;;21.81;100.00
44934;BME280;30667;43.614;1.442;2023-07-28T07:09:57;99864.88;;;21.74;100.00
44934;BME280;30667;43.614;1.442;2023-07-28T07:12:23;99864.28;;;21.81;100.00
44934;BME280;30667;43.614;1.442;2023-07-28T07:14:48;99862.78;;;22.03;100.00
44934;BME280;30667;43.614;1.442;2023-07-28T07:17:14;99870.16;;;22.15;100.00
44934;BME280;30667;43.614;1.442;2023-07-28T07:19:39;99865.56;;;22.03;100.00
44934;BME280;30667;43.614;1.442;2023-07-28T07:22:05;99867.16;;;22.04;100.00
44934;BME280;30667;43.614;1.442;2023-07-28T07:24:31;99872.22;;;22.02;100.00
44934;BME280;30667;43.614;1.442;2023-07-28T07:26:56;99874.72;;;22.07;100.00
44934;BME280;30667;43.614;1.442;2023-07-28T07:29:21;99876.19;;;22.21;100.00
44934;BME280;30667;43.614;1.442;2023-07-28T07:31:47;99880.19;;;22.23;100.00
44934;BME280;30667;43.614;1.442;2023-07-28T07:34:13;99876.63;;;22.39;100.00
44934;BME280;30667;43.614;1.442;2023-07-28T07:36:39;99883.38;;;22.25;100.00
44934;BME280;30667;43.614;1.442;2023-07-28T07:39:05;99881.31;;;22.22;100.00
44934;BME280;30667;43.614;1.442;2023-07-28T07:41:31;99884.72;;;22.51;100.00
44934;BME280;30667;43.614;1.442;2023-07-28T07:43:56;99884.59;;;22.63;100.00
44934;BME280;30667;43.614;1.442;2023-07-28T07:46:22;99880.53;;;22.57;100.00
44934;BME280;30667;43.614;1.442;2023-07-28T07:48:48;99879.31;;;22.55;100.00
44934;BME280;30667;43.614;1.442;2023-07-28T07:51:14;99883.06;;;22.46;100.00
44934;BME280;30667;43.614;1.442;2023-07-28T07:53:39;99888.59;;;22.66;100.00
44934;BME280;30667;43.614;1.442;2023-07-28T07:56:06;99885.84;;;22.66;100.00
44934;BME280;30667;43.614;1.442;2023-07-28T07:58:32;99882.28;;;22.85;100.00
44934;BME280;30667;43.614;1.442;2023-07-28T08:00:57;99894.22;;;22.93;100.00
44934;BME280;30667;43.614;1.442;2023-07-28T08:03:23;99892.78;;;22.99;100.00
44934;BME280;30667;43.614;1.442;2023-07-28T08:05:50;99883.41;;;23.03;100.00
44934;BME280;30667;43.614;1.442;2023-07-28T08:08:15;99880.38;;;23.09;100.00
44934;BME280;30667;43.614;1.442;2023-07-28T08:10:44;99875.69;;;23.09;100.00
44934;BME280;30667;43.614;1.442;2023-07-28T08:13:10;99880.09;;;23.14;100.00
44934;BME280;30667;43.614;1.442;2023-07-28T08:15:36;99880.09;;;23.14;100.00
44934;BME280;30667;43.614;1.442;2023-07-28T08:18:01;99876.25;;;23.18;100.00
44934;BME280;30667;43.614;1.442;2023-07-28T08:20:26;99884.06;;;23.16;100.00
44934;BME280;30667;43.614;1.442;2023-07-28T08:22:52;99877.34;;;23.14;100.00
44934;BME280;30667;43.614;1.442;2023-07-28T08:25:18;99880.16;;;23.17;100.00
44934;BME280;30667;43.614;1.442;2023-07-28T08:27:43;99885.31;;;23.19;100.00
44934;BME280;30667;43.614;1.442;2023-07-28T08:30:09;99885.78;;;23.25;100.00
44934;BME280;30667;43.614;1.442;2023-07-28T08:32:35;99877.97;;;23.27;100.00
44934;BME280;30667;43.614;1.442;2023-07-28T08:35:00;99872.88;;;23.29;100.00
44934;BME280;30667;43.614;1.442;2023-07-28T08:37:27;99871.34;;;23.31;100.00
44934;BME280;30667;43.614;1.442;2023-07-28T08:39:53;99872.91;;;23.32;100.00
44934;BME280;30667;43.614;1.442;2023-07-28T08:42:20;99872.91;;;23.32;100.00
44934;BME280;30667;43.614;1.442;2023-07-28T08:44:46;99867.03;;;23.34;100.00
44934;BME280;30667;43.614;1.442;2023-07-28T08:47:12;99869.00;;;23.33;100.00
44934;BME280;30667;43.614;1.442;2023-07-28T08:49:37;99869.44;;;23.35;100.00
44934;BME280;30667;43.614;1.442;2023-07-28T08:52:04;99869.47;;;23.39;100.00
44934;BME280;30667;43.614;1.442;2023-07-28T08:54:30;99875.13;;;23.46;100.00
44934;BME280;30667;43.614;1.442;2023-07-28T08:56:57;99875.19;;;23.50;100.00
44934;BME280;30667;43.614;1.442;2023-07-28T08:59:28;99879.06;;;23.45;100.00
44934;BME280;30667;43.614;1.442;2023-07-28T09:01:56;99879.41;;;23.44;100.00
44934;BME280;30667;43.614;1.442;2023-07-28T09:04:23;99884.16;;;23.43;100.00
44934;BME280;30667;43.614;1.442;2023-07-28T09:06:49;99873.53;;;23.45;100.00
44934;BME280;30667;43.614;1.442;2023-07-28T09:09:15;99879.13;;;23.49;100.00
44934;BME280;30667;43.614;1.442;2023-07-28T09:11:49;99884.28;;;23.50;100.00
44934;BME280;30667;43.614;1.442;2023-07-28T09:14:17;99888.22;;;23.49;100.00
44934;BME280;30667;43.614;1.442;2023-07-28T09:16:43;99880.66;;;23.46;100.00
44934;BME280;30667;43.614;1.442;2023-07-28T09:19:09;99883.47;;;23.50;100.00
44934;BME280;30667;43.614;1.442;2023-07-28T09:21:36;99878.78;;;23.50;100.00
44934;BME280;30667;43.614;1.442;2023-07-28T09:24:07;99883.09;;;23.51;100.00
44934;BME280;30667;43.614;1.442;2023-07-28T09:26:43;99883.06;;;23.48;100.00
44934;BME280;30667;43.614;1.442;2023-07-28T09:29:17;99883.16;;;23.55;100.00
44934;BME280;30667;43.614;1.442;2023-07-28T09:31:50;99891.38;;;23.51;100.00
44934;BME280;30667;43.614;1.442;2023-07-28T09:34:26;99893.56;;;23.62;100.00
44934;BME280;30667;43.614;1.442;2023-07-28T09:36:59;99887.28;;;23.65;100.00
44934;BME280;30667;43.614;1.442;2023-07-28T09:39:26;99885.69;;;23.64;100.00
44934;BME280;30667;43.614;1.442;2023-07-28T09:41:53;99886.84;;;23.63;100.00
44934;BME280;30667;43.614;1.442;2023-07-28T09:44:22;99894.38;;;23.66;100.00
44934;BME280;30667;43.614;1.442;2023-07-28T09:46:53;99884.16;;;23.66;100.00
44934;BME280;30667;43.614;1.442;2023-07-28T09:49:35;99880.53;;;23.62;100.00
44934;BME280;30667;43.614;1.442;2023-07-28T09:52:04;99880.66;;;23.69;100.00
44934;BME280;30667;43.614;1.442;2023-07-28T09:54:34;99876.53;;;23.60;100.00
44934;BME280;30667;43.614;1.442;2023-07-28T09:56:59;99887.56;;;23.60;100.00
44934;BME280;30667;43.614;1.442;2023-07-28T09:59:51;99884.75;;;23.56;100.00
44934;BME280;30667;43.614;1.442;2023-07-28T10:02:19;99895.56;;;23.65;100.00
44934;BME280;30667;43.614;1.442;2023-07-28T10:04:45;99886.84;;;23.63;100.00
44934;BME280;30667;43.614;1.442;2023-07-28T10:07:11;99875.97;;;23.73;100.00
44934;BME280;30667;43.614;1.442;2023-07-28T10:09:38;99871.06;;;23.86;100.00
44934;BME280;30667;43.614;1.442;2023-07-28T10:12:04;99862.78;;;23.86;100.00
44934;BME280;30667;43.614;1.442;2023-07-28T10:14:34;99866.81;;;23.92;100.00
44934;BME280;30667;43.614;1.442;2023-07-28T10:17:00;99868.09;;;23.99;100.00
44934;BME280;30667;43.614;1.442;2023-07-28T10:19:31;99866.63;;;24.05;100.00
44934;BME280;30667;43.614;1.442;2023-07-28T10:22:00;99874.78;;;23.98;100.00
44934;BME280;30667;43.614;1.442;2023-07-28T10:24:49;99866.16;;;24.03;100.00
44934;BME280;30667;43.614;1.442;2023-07-28T10:27:50;99867.31;;;23.98;100.00
44934;BME280;30667;43.614;1.442;2023-07-28T10:30:15;99861.00;;;24.01;100.00
44934;BME280;30667;43.614;1.442;2023-07-28T10:32:45;99859.06;;;24.02;100.00
44934;BME280;30667;43.614;1.442;2023-07-28T10:37:39;99854.97;;;23.92;100.00
44934;BME280;30667;43.614;1.442;2023-07-28T10:42:53;99845.22;;;23.98;100.00
44934;BME280;30667;43.614;1.442;2023-07-28T10:45:19;99839.69;;;23.98;100.00
44934;BME280;30667;43.614;1.442;2023-07-28T10:47:45;99838.47;;;24.26;100.00
44934;BME280;30667;43.614;1.442;2023-07-28T10:50:11;99833.78;;;24.30;100.00
44934;BME280;30667;43.614;1.442;2023-07-28T10:52:43;99845.06;;;24.18;100.00
44934;BME280;30667;43.614;1.442;2023-07-28T10:57:45;99835.56;;;24.15;100.00
44934;BME280;30667;43.614;1.442;2023-07-28T11:00:15;99832.47;;;24.20;100.00
44934;BME280;30667;43.614;1.442;2023-07-28T11:02:45;99824.28;;;24.58;100.00
44934;BME280;30667;43.614;1.442;2023-07-28T11:05:13;99817.41;;;24.48;100.00
44934;BME280;30667;43.614;1.442;2023-07-28T11:07:43;99818.41;;;24.33;100.00
44934;BME280;30667;43.614;1.442;2023-07-28T11:10:13;99823.09;;;24.28;100.00
44934;BME280;30667;43.614;1.442;2023-07-28T11:12:42;99829.81;;;24.27;100.00
44934;BME280;30667;43.614;1.442;2023-07-28T11:15:09;99818.16;;;24.45;100.00
44934;BME280;30667;43.614;1.442;2023-07-28T11:17:40;99806.75;;;24.50;100.00
44934;BME280;30667;43.614;1.442;2023-07-28T11:20:25;99811.75;;;24.71;100.00
44934;BME280;30667;43.614;1.442;2023-07-28T11:22:59;99810.00;;;24.56;100.00
44934;BME280;30667;43.614;1.442;2023-07-28T11:25:28;99816.44;;;24.33;100.00
44934;BME280;30667;43.614;1.442;2023-07-28T11:27:54;99812.91;;;24.06;100.00
44934;BME280;30667;43.614;1.442;2023-07-28T11:30:21;99816.72;;;23.94;100.00
44934;BME280;30667;43.614;1.442;2023-07-28T11:32:51;99799.91;;;24.37;100.00
44934;BME280;30667;43.614;1.442;2023-07-28T11:35:21;99795.97;;;24.72;100.00
44934;BME280;30667;43.614;1.442;2023-07-28T11:37:52;99799.31;;;24.88;100.00
44934;BME280;30667;43.614;1.442;2023-07-28T11:40:20;99802.16;;;24.58;100.00
44934;BME280;30667;43.614;1.442;2023-07-28T11:42:50;99799.75;;;24.26;100.00
44934;BME280;30667;43.614;1.442;2023-07-28T11:45:17;99788.94;;;24.14;100.00
44934;BME280;30667;43.614;1.442;2023-07-28T11:48:00;99775.94;;;24.14;100.00
44934;BME280;30667;43.614;1.442;2023-07-28T11:50:29;99780.66;;;24.14;100.00
44934;BME280;30667;43.614;1.442;2023-07-28T11:52:57;99799.06;;;24.02;100.00
44934;BME280;30667;43.614;1.442;2023-07-28T11:55:29;99808.47;;;23.98;100.00
44934;BME280;30667;43.614;1.442;2023-07-28T11:58:01;99807.19;;;23.91;100.00
44934;BME280;30667;43.614;1.442;2023-07-28T12:00:42;99792.91;;;23.86;100.00
44934;BME280;30667;43.614;1.442;2023-07-28T12:03:14;99807.69;;;23.97;100.00
44934;BME280;30667;43.614;1.442;2023-07-28T12:05:41;99811.19;;;24.24;100.00
44934;BME280;30667;43.614;1.442;2023-07-28T12:08:36;99796.81;;;24.45;100.00
44934;BME280;30667;43.614;1.442;2023-07-28T12:11:02;99789.19;;;24.65;100.00
44934;BME280;30667;43.614;1.442;2023-07-28T12:13:27;99808.72;;;24.80;100.00
44934;BME280;30667;43.614;1.442;2023-07-28T12:15:53;99808.72;;;24.80;100.00
44934;BME280;30667;43.614;1.442;2023-07-28T12:18:18;99793.75;;;24.84;100.00
44934;BME280;30667;43.614;1.442;2023-07-28T12:20:47;99804.94;;;24.99;100.00
44934;BME280;30667;43.614;1.442;2023-07-28T12:23:14;99804.47;;;24.93;100.00
44934;BME280;30667;43.614;1.442;2023-07-28T12:25:44;99799.97;;;24.78;100.00
44934;BME280;30667;43.614;1.442;2023-07-28T12:28:12;99785.59;;;25.02;100.00
44934;BME280;30667;43.614;1.442;2023-07-28T12:30:43;99784.94;;;25.16;100.00
44934;BME280;30667;43.614;1.442;2023-07-28T12:33:15;99775.91;;;24.82;100.00
44934;BME280;30667;43.614;1.442;2023-07-28T12:35:41;99785.69;;;25.13;100.00
44934;BME280;30667;43.614;1.442;2023-07-28T12:38:12;99777.34;;;25.10;100.00
44934;BME280;30667;43.614;1.442;2023-07-28T12:40:38;99782.19;;;24.75;100.00
44934;BME280;30667;43.614;1.442;2023-07-28T12:43:04;99790.00;;;24.70;100.00
44934;BME280;30667;43.614;1.442;2023-07-28T12:45:30;99795.91;;;24.68;100.00
44934;BME280;30667;43.614;1.442;2023-07-28T12:48:01;99785.06;;;24.52;100.00
44934;BME280;30667;43.614;1.442;2023-07-28T12:50:27;99765.50;;;24.68;100.00
44934;BME280;30667;43.614;1.442;2023-07-28T12:52:52;99749.28;;;24.66;100.00
44934;BME280;30667;43.614;1.442;2023-07-28T12:55:18;99744.09;;;24.61;100.00
44934;BME280;30667;43.614;1.442;2023-07-28T12:57:44;99753.25;;;25.14;100.00
44934;BME280;30667;43.614;1.442;2023-07-28T13:00:10;99753.41;;;25.28;100.00
44934;BME280;30667;43.614;1.442;2023-07-28T13:02:45;99761.44;;;24.99;100.00
44934;BME280;30667;43.614;1.442;2023-07-28T13:05:11;99756.09;;;24.76;100.00